Terminal Aerodrome Forecast
Issued by NWS

Home | Current Version | Previous Version | Text Only | Print | Product List | Glossary On
Versions: 1 2 3 4 5 6 7 8 9 10 11 12 13 14 15 16
000
FTUS42 KMHX 242335
TAFISO
TAF
KISO 242335Z 2500/2524 25010KT 6SM SHRA VCTS SCT025CB BKN040
     FM250100 22005KT 4SM SHRA VCTS SCT025CB OVC040
     FM250600 22005KT P6SM SHRA VCTS SCT007CB OVC020
     FM251300 30005KT P6SM VCSH SCT007 BKN050
     FM251600 31005KT P6SM SCT050
      AMD LTD TO CLD VIS AND WIND=

USA.gov is the U.S. government's official web portal to all federal, state and local government web resources and services.